Time;durP1;ratioP1;P1;durP2;ratioP2;P2;SDS_P1;SDS_P2;PMS_P1;PMS_P2;Temp;Humidity;BMP_temperature;BMP_pressure;BME280_temperature;BME280_humidity;BME280_pressure;Samples;Min_cycle;Max_cycle;Signal;HPM_P1;HPM_P2
2023/06/18 00:01:28;;;;;;;4.57;3.70;;;;;;;25.52;57.29;100739.00;143724;602;47004;-68
2023/06/18 00:03:54;;;;;;;4.85;3.65;;;;;;;25.46;57.03;100740.19;143724;644;47009;-69
2023/06/18 00:06:21;;;;;;;3.78;3.22;;;;;;;25.47;57.66;100736.34;143724;580;47002;-70
2023/06/18 00:08:48;;;;;;;5.37;3.55;;;;;;;25.48;57.42;100737.97;143723;582;47002;-68
2023/06/18 00:11:14;;;;;;;5.18;3.78;;;;;;;25.47;57.67;100732.78;143725;695;47004;-68
2023/06/18 00:13:40;;;;;;;5.22;3.85;;;;;;;25.48;57.33;100737.16;143723;690;47004;-69
2023/06/18 00:16:07;;;;;;;5.72;3.75;;;;;;;25.44;57.13;100728.69;143725;664;47006;-69
2023/06/18 00:18:33;;;;;;;6.50;3.87;;;;;;;25.43;57.18;100741.63;143724;701;47002;-68
2023/06/18 00:21:03;;;;;;;5.35;3.97;;;;;;;25.41;57.47;100745.75;143725;596;47924;-70
2023/06/18 00:23:29;;;;;;;6.70;4.32;;;;;;;25.42;57.36;100745.47;143725;710;47004;-69
2023/06/18 00:25:55;;;;;;;4.55;4.10;;;;;;;25.42;58.03;100744.66;143726;666;46010;-68
2023/06/18 00:28:21;;;;;;;4.55;3.80;;;;;;;25.41;57.51;100740.25;143726;568;47002;-69
2023/06/18 00:30:48;;;;;;;4.95;3.97;;;;;;;25.41;58.20;100745.75;143725;572;47004;-69
2023/06/18 00:33:14;;;;;;;5.68;4.07;;;;;;;25.40;58.21;100736.69;143725;581;47004;-69
2023/06/18 00:35:42;;;;;;;4.80;3.85;;;;;;;25.39;57.91;100739.75;143724;579;47000;-69
2023/06/18 00:38:09;;;;;;;6.00;3.85;;;;;;;25.40;58.21;100755.94;143724;683;47002;-69
2023/06/18 00:40:35;;;;;;;6.25;4.12;;;;;;;25.39;58.52;100745.25;143726;641;46925;-69
2023/06/18 00:43:03;;;;;;;6.12;4.35;;;;;;;25.38;58.11;100743.59;143724;578;47004;-69
2023/06/18 00:45:30;;;;;;;5.78;3.60;;;;;;;25.35;58.56;100738.69;143727;633;46006;-70
2023/06/18 00:47:57;;;;;;;8.43;4.00;;;;;;;25.34;58.62;100746.13;143725;589;47002;-69
2023/06/18 00:50:26;;;;;;;4.68;3.55;;;;;;;25.34;56.89;100748.06;143726;600;46010;-69
2023/06/18 00:52:59;;;;;;;5.62;3.40;;;;;;;25.33;58.13;100751.91;143724;623;47004;-70
2023/06/18 00:55:30;;;;;;;5.93;3.72;;;;;;;25.34;58.35;100751.63;143727;576;46007;-69
2023/06/18 00:58:02;;;;;;;6.93;3.62;;;;;;;25.35;58.34;100749.69;143730;617;46006;-68
2023/06/18 01:00:32;;;;;;;6.53;4.12;;;;;;;25.32;58.48;100756.63;143725;644;46924;-70
2023/06/18 01:03:00;;;;;;;6.30;4.00;;;;;;;25.31;58.90;100757.72;143724;607;47002;-69
2023/06/18 01:05:29;;;;;;;5.43;3.62;;;;;;;25.30;59.29;100760.75;143725;566;46006;-70
2023/06/18 01:07:55;;;;;;;7.57;4.10;;;;;;;25.30;58.76;100760.75;143724;572;47002;-69
2023/06/18 01:10:21;;;;;;;8.18;3.70;;;;;;;25.31;58.41;100765.16;143725;645;47008;-70
2023/06/18 01:12:48;;;;;;;4.87;3.83;;;;;;;25.30;58.33;100758.00;143726;669;47004;-69
2023/06/18 01:15:17;;;;;;;6.18;3.62;;;;;;;25.29;58.36;100765.47;143727;596;46006;-69
2023/06/18 01:17:48;;;;;;;5.20;4.05;;;;;;;25.27;58.46;100767.69;143728;609;47000;-68
2023/06/18 01:20:17;;;;;;;5.55;3.75;;;;;;;25.26;58.26;100772.34;143724;623;48002;-70
2023/06/18 01:23:02;;;;;;;4.62;3.58;;;;;;;25.26;57.95;100772.34;143729;602;46012;-69
2023/06/18 01:25:37;;;;;;;5.87;3.85;;;;;;;25.25;58.34;100776.22;143728;733;46007;-67
2023/06/18 01:28:08;;;;;;;4.32;3.53;;;;;;;25.25;57.06;100773.47;143727;584;47004;-68
2023/06/18 01:30:37;;;;;;;5.57;4.18;;;;;;;25.30;57.57;100778.09;143726;581;46010;-68
2023/06/18 01:33:04;;;;;;;5.50;4.05;;;;;;;25.30;57.97;100780.84;143725;602;47004;-70
2023/06/18 01:35:30;;;;;;;5.87;3.97;;;;;;;25.27;57.44;100775.94;143727;579;46006;-69
2023/06/18 01:38:19;;;;;;;4.82;4.25;;;;;;;25.26;57.81;100785.28;143725;595;47004;-70
2023/06/18 01:41:00;;;;;;;8.40;4.35;;;;;;;25.23;57.83;100781.22;143725;617;47008;-69
2023/06/18 01:43:57;;;;;;;4.60;3.83;;;;;;;25.22;58.09;100787.81;143725;722;47004;-69
2023/06/18 01:46:28;;;;;;;5.97;4.60;;;;;;;25.19;57.58;100795.81;143727;596;46007;-69
2023/06/18 01:48:57;;;;;;;5.07;4.00;;;;;;;25.18;57.88;100791.44;143727;627;47004;-70
2023/06/18 01:51:25;;;;;;;5.72;3.83;;;;;;;25.15;58.01;100794.78;143725;580;46008;-70
2023/06/18 01:53:54;;;;;;;4.78;4.00;;;;;;;25.13;58.17;100789.56;143722;605;47005;-68
2023/06/18 01:56:22;;;;;;;5.78;4.30;;;;;;;25.11;57.74;100789.06;143727;603;46922;-69
2023/06/18 01:58:48;;;;;;;5.37;3.67;;;;;;;25.01;56.83;100798.25;143725;702;47004;-70
2023/06/18 02:01:15;;;;;;;5.93;4.57;;;;;;;25.02;57.57;100801.81;143724;588;47924;-70
2023/06/18 02:03:42;;;;;;;9.45;4.50;;;;;;;24.99;57.43;100800.47;143723;581;47004;-70
2023/06/18 02:06:08;;;;;;;5.80;4.18;;;;;;;25.00;57.44;100804.84;143727;613;46006;-71
2023/06/18 02:08:35;;;;;;;5.22;4.07;;;;;;;25.00;57.32;100804.06;143730;656;46006;-70
2023/06/18 02:11:02;;;;;;;5.57;4.62;;;;;;;25.01;58.20;100808.44;143728;591;46021;-70
2023/06/18 02:13:28;;;;;;;5.78;4.47;;;;;;;24.98;57.85;100812.56;143726;676;47008;-72
2023/06/18 02:15:54;;;;;;;4.25;3.62;;;;;;;24.91;56.97;100815.69;143725;573;46006;-70
2023/06/18 02:18:20;;;;;;;5.07;3.72;;;;;;;24.90;57.64;100811.28;143730;598;46006;-70
2023/06/18 02:20:46;;;;;;;4.25;3.60;;;;;;;24.91;57.72;100818.41;143725;663;46010;-71
2023/06/18 02:23:13;;;;;;;4.70;3.03;;;;;;;24.89;57.04;100817.91;143723;643;47004;-70
2023/06/18 02:25:39;;;;;;;5.62;3.37;;;;;;;24.88;57.00;100815.44;143720;568;47004;-71
2023/06/18 02:28:09;;;;;;;5.75;3.55;;;;;;;24.88;56.89;100810.78;143723;580;47004;-70
2023/06/18 02:30:35;;;;;;;5.57;3.90;;;;;;;24.89;57.44;100822.59;143724;573;47004;-71
2023/06/18 02:33:06;;;;;;;3.58;3.12;;;;;;;24.87;57.45;100825.62;143722;657;47004;-70
2023/06/18 02:35:34;;;;;;;5.10;3.83;;;;;;;24.86;56.97;100821.25;143725;597;46006;-71
2023/06/18 02:38:00;;;;;;;6.22;3.58;;;;;;;24.84;56.97;100831.72;143723;576;47002;-71
2023/06/18 02:40:27;;;;;;;5.30;3.55;;;;;;;24.76;56.94;100818.59;143723;574;46925;-73
2023/06/18 02:42:53;;;;;;;3.85;3.55;;;;;;;24.73;57.45;100824.69;143726;580;46012;-70
2023/06/18 02:45:24;;;;;;;4.65;3.42;;;;;;;24.74;57.00;100824.41;143725;583;46006;-70
2023/06/18 02:47:50;;;;;;;5.45;3.65;;;;;;;24.69;57.00;100821.69;143724;589;47005;-71
2023/06/18 02:50:18;;;;;;;6.57;3.75;;;;;;;24.64;57.18;100828.06;143723;664;46924;-70
2023/06/18 02:52:46;;;;;;;5.30;3.90;;;;;;;24.59;56.94;100828.09;143723;569;47004;-70
2023/06/18 02:55:13;;;;;;;3.55;3.25;;;;;;;24.52;57.28;100831.19;143721;588;48000;-68
2023/06/18 02:57:41;;;;;;;5.20;3.95;;;;;;;24.53;57.50;100826.53;143725;588;47004;-71
2023/06/18 03:00:11;;;;;;;5.25;3.75;;;;;;;24.50;57.55;100827.91;143723;606;47010;-69
2023/06/18 03:02:38;;;;;;;4.82;4.22;;;;;;;24.47;56.85;100833.16;143721;620;47004;-71
2023/06/18 03:05:05;;;;;;;4.82;3.67;;;;;;;24.44;57.58;100836.50;143726;569;46006;-68
2023/06/18 03:07:31;;;;;;;4.47;4.07;;;;;;;24.40;57.20;100833.50;143722;573;47002;-70
2023/06/18 03:09:57;;;;;;;6.10;4.12;;;;;;;24.34;57.46;100840.16;143723;629;47011;-70
2023/06/18 03:12:24;;;;;;;4.85;3.90;;;;;;;24.34;57.42;100846.47;143722;649;47004;-70
2023/06/18 03:14:50;;;;;;;4.30;3.90;;;;;;;24.32;57.59;100854.19;143720;601;47006;-71
2023/06/18 03:17:16;;;;;;;4.82;4.43;;;;;;;24.30;57.41;100852.81;143725;597;47004;-69
2023/06/18 03:19:43;;;;;;;5.07;4.50;;;;;;;24.26;57.45;100866.31;143723;599;47010;-69
2023/06/18 03:22:09;;;;;;;5.20;4.70;;;;;;;24.30;57.44;100864.63;143724;566;46008;-72
2023/06/18 03:24:37;;;;;;;5.47;4.97;;;;;;;24.31;57.55;100870.91;143723;586;46007;-70
2023/06/18 03:27:04;;;;;;;4.80;4.35;;;;;;;24.28;57.70;100866.00;143723;597;47002;-70
2023/06/18 03:29:30;;;;;;;5.47;4.65;;;;;;;24.20;57.49;100870.19;143722;580;47010;-70
2023/06/18 03:31:57;;;;;;;5.32;4.82;;;;;;;24.16;58.11;100875.44;143722;586;47004;-68
2023/06/18 03:34:24;;;;;;;7.85;5.00;;;;;;;24.17;57.37;100890.00;143724;578;46006;-71
2023/06/18 03:36:50;;;;;;;5.10;4.60;;;;;;;24.15;57.53;100884.78;143722;603;47002;-70
2023/06/18 03:39:17;;;;;;;5.55;4.60;;;;;;;24.11;57.75;100888.37;143723;596;47011;-70
2023/06/18 03:41:44;;;;;;;5.28;4.68;;;;;;;24.10;57.68;100889.47;143723;647;47004;-69
2023/06/18 03:44:10;;;;;;;5.12;4.72;;;;;;;24.11;57.28;100897.41;143724;592;46922;-70
2023/06/18 03:46:36;;;;;;;5.45;4.60;;;;;;;24.14;57.77;100896.03;143725;573;47005;-70
2023/06/18 03:49:03;;;;;;;5.18;4.65;;;;;;;24.14;57.36;100898.78;143720;583;47004;-70
2023/06/18 03:51:29;;;;;;;4.43;3.97;;;;;;;24.16;57.53;100900.12;143720;622;47929;-70
2023/06/18 03:53:55;;;;;;;4.62;4.20;;;;;;;24.18;57.51;100899.88;143720;602;47004;-69
2023/06/18 03:56:23;;;;;;;4.50;4.05;;;;;;;24.19;57.47;100899.56;143723;582;47002;-70
2023/06/18 03:58:49;;;;;;;5.30;3.45;;;;;;;24.18;56.90;100900.66;143726;653;46021;-69
2023/06/18 04:01:15;;;;;;;5.97;3.40;;;;;;;24.15;56.90;100883.97;143722;583;47004;-70
2023/06/18 04:03:42;;;;;;;5.45;3.40;;;;;;;24.16;57.09;100888.34;143724;626;47000;-68
2023/06/18 04:06:08;;;;;;;3.65;3.33;;;;;;;24.14;57.16;100890.56;143723;647;47002;-70
2023/06/18 04:08:35;;;;;;;3.55;3.25;;;;;;;24.13;57.05;100881.50;143725;582;46924;-71
2023/06/18 04:11:01;;;;;;;3.22;2.78;;;;;;;24.12;57.59;100884.53;143724;576;46008;-71
2023/06/18 04:13:30;;;;;;;3.62;3.30;;;;;;;24.10;57.88;100873.81;143727;636;45922;-70
2023/06/18 04:15:58;;;;;;;3.42;3.15;;;;;;;24.09;57.70;100868.63;143725;615;47002;-69
2023/06/18 04:18:25;;;;;;;3.60;3.30;;;;;;;24.03;58.25;100868.66;143723;584;46925;-69
2023/06/18 04:20:51;;;;;;;3.20;2.90;;;;;;;23.89;58.32;100864.91;143723;585;47004;-71
2023/06/18 04:23:17;;;;;;;3.80;3.47;;;;;;;23.90;58.15;100866.53;143724;567;46007;-70
2023/06/18 04:25:44;;;;;;;5.93;3.78;;;;;;;23.86;58.34;100862.72;143724;593;47002;-70
2023/06/18 04:28:10;;;;;;;3.80;3.45;;;;;;;23.80;58.36;100861.16;143722;598;47008;-69
2023/06/18 04:30:36;;;;;;;3.70;3.40;;;;;;;23.72;58.71;100857.87;143723;584;47004;-70
2023/06/18 04:33:02;;;;;;;3.55;3.25;;;;;;;23.74;59.03;100852.94;143726;587;46006;-70
2023/06/18 04:35:28;;;;;;;4.40;3.47;;;;;;;23.61;59.11;100868.09;143725;585;47006;-70
2023/06/18 04:37:55;;;;;;;3.50;3.20;;;;;;;23.55;59.17;100863.75;143725;600;46014;-70
2023/06/18 04:40:21;;;;;;;3.40;3.10;;;;;;;23.55;59.20;100865.66;143723;629;46008;-69
2023/06/18 04:42:48;;;;;;;4.07;3.00;;;;;;;23.49;59.42;100873.09;143724;636;46006;-68
2023/06/18 04:45:14;;;;;;;3.22;2.95;;;;;;;23.47;59.65;100880.78;143727;567;46009;-69
2023/06/18 04:47:40;;;;;;;3.83;2.62;;;;;;;23.51;59.50;100884.63;143724;641;46026;-70
2023/06/18 04:50:08;;;;;;;3.00;2.20;;;;;;;23.52;59.58;100882.69;143723;648;47004;-69
2023/06/18 04:52:35;;;;;;;2.58;2.37;;;;;;;23.58;59.78;100892.53;143725;575;46007;-70
2023/06/18 04:55:01;;;;;;;3.78;2.40;;;;;;;23.61;58.89;100892.78;143724;604;47002;-69
2023/06/18 04:57:28;;;;;;;2.40;2.17;;;;;;;23.68;59.63;100900.69;143724;620;47008;-69
2023/06/18 04:59:54;;;;;;;3.35;2.55;;;;;;;23.70;59.27;100893.00;143721;613;47004;-70
2023/06/18 05:02:20;;;;;;;2.80;2.40;;;;;;;23.70;59.60;100900.41;143724;601;47006;-69
2023/06/18 05:20:45;;;;;;;3.58;2.97;;;;;;;23.85;60.44;100905.81;143773;579;48008;-72
2023/06/18 05:23:12;;;;;;;3.47;3.17;;;;;;;23.92;59.92;100908.22;143730;615;47006;-72
2023/06/18 05:25:38;;;;;;;3.58;2.87;;;;;;;23.91;59.77;100901.09;143726;598;48004;-71
2023/06/18 05:28:05;;;;;;;3.37;2.97;;;;;;;23.92;60.03;100900.81;143726;566;47932;-73
2023/06/18 05:30:31;;;;;;;3.40;3.10;;;;;;;23.91;60.01;100917.56;143728;633;47008;-75
2023/06/18 05:32:57;;;;;;;3.42;3.12;;;;;;;23.95;59.87;100906.84;143729;597;47004;-72
2023/06/18 05:35:24;;;;;;;4.10;3.70;;;;;;;23.96;59.68;100909.31;143726;593;48010;-73
2023/06/18 05:37:50;;;;;;;4.53;4.12;;;;;;;23.93;59.95;100921.66;143728;567;47006;-73
2023/06/18 05:40:17;;;;;;;3.90;3.50;;;;;;;23.95;59.63;100923.28;143721;587;49002;-75
2023/06/18 05:42:43;;;;;;;4.10;3.62;;;;;;;23.96;59.92;100925.78;143728;603;48012;-74
2023/06/18 05:45:10;;;;;;;4.22;3.83;;;;;;;24.03;59.59;100931.78;143728;570;47011;-73
2023/06/18 05:47:36;;;;;;;4.22;3.83;;;;;;;24.06;59.88;100928.47;143726;601;47014;-74
2023/06/18 05:50:03;;;;;;;4.18;3.83;;;;;;;24.09;58.68;100932.59;143726;602;47008;-73
2023/06/18 05:52:29;;;;;;;4.07;3.75;;;;;;;24.12;59.20;100936.66;143733;603;47004;-74
2023/06/18 05:54:55;;;;;;;5.53;4.07;;;;;;;24.14;58.62;100932.53;143724;589;48010;-76
2023/06/18 05:57:21;;;;;;;4.60;4.20;;;;;;;24.16;58.37;100940.50;143726;620;48932;-71
2023/06/18 05:59:48;;;;;;;4.70;4.20;;;;;;;24.14;58.37;100937.22;143728;580;47008;-72
2023/06/18 06:02:14;;;;;;;4.97;4.03;;;;;;;24.21;58.78;100943.19;143731;615;47004;-72
2023/06/18 06:04:40;;;;;;;5.15;4.22;;;;;;;24.25;58.22;100952.50;143728;579;47010;-74
2023/06/18 06:07:07;;;;;;;4.68;4.28;;;;;;;24.25;58.41;100944.25;143725;581;48010;-74
2023/06/18 06:09:33;;;;;;;4.72;4.25;;;;;;;24.29;57.62;100950.81;143728;590;47008;-74
2023/06/18 06:11:59;;;;;;;5.47;4.20;;;;;;;24.26;57.39;100945.91;143724;572;48008;-72
2023/06/18 06:14:26;;;;;;;4.87;4.20;;;;;;;24.19;57.90;100957.19;143726;594;47011;-72
2023/06/18 06:16:57;;;;;;;5.45;4.35;;;;;;;24.24;57.92;100958.28;143727;581;47006;-74
2023/06/18 06:19:25;;;;;;;4.90;4.50;;;;;;;24.32;57.42;100963.13;143726;603;47008;-73
2023/06/18 06:21:51;;;;;;;4.57;4.18;;;;;;;24.35;58.10;100965.31;143730;574;47016;-72
2023/06/18 06:24:18;;;;;;;5.15;4.68;;;;;;;24.40;57.74;100969.94;143727;587;47013;-72
2023/06/18 06:26:44;;;;;;;4.90;4.37;;;;;;;24.43;59.20;100972.13;143730;616;47006;-72
2023/06/18 06:29:10;;;;;;;9.73;5.95;;;;;;;24.46;59.05;100977.84;143729;607;47004;-71
2023/06/18 06:31:37;;;;;;;11.02;5.68;;;;;;;24.52;58.59;100982.22;143721;593;48009;-73
2023/06/18 06:34:03;;;;;;;11.73;4.30;;;;;;;24.57;59.03;100988.78;143728;576;47010;-73
2023/06/18 06:36:30;;;;;;;5.60;4.03;;;;;;;24.58;59.83;100987.66;143718;594;49004;-72
2023/06/18 06:38:56;;;;;;;6.10;4.32;;;;;;;24.60;59.95;100993.69;143726;568;47008;-72
2023/06/18 06:41:23;;;;;;;7.65;3.53;;;;;;;24.60;58.93;100989.00;143729;589;47004;-73
2023/06/18 06:43:49;;;;;;;4.90;3.80;;;;;;;24.63;58.93;100991.19;143729;603;46923;-74
2023/06/18 06:46:15;;;;;;;7.45;6.68;;;;;;;24.64;57.34;100998.31;143727;580;47006;-73
2023/06/18 06:48:42;;;;;;;10.63;9.52;;;;;;;24.65;56.84;100996.37;143725;588;47921;-72
2023/06/18 06:51:08;;;;;;;9.88;8.88;;;;;;;24.65;56.30;100990.88;143730;581;47004;-73
2023/06/18 06:53:35;;;;;;;6.20;5.60;;;;;;;24.65;56.28;100999.97;143730;636;47010;-72
2023/06/18 06:56:01;;;;;;;6.53;5.93;;;;;;;24.64;56.50;100992.81;143725;617;47932;-72
2023/06/18 06:58:27;;;;;;;8.38;7.18;;;;;;;24.63;56.04;100991.19;143731;592;47008;-72
2023/06/18 07:14:11;;;;;;;24.60;22.20;;;;;;;24.75;56.07;100984.53;143771;709;46017;-73
2023/06/18 07:16:38;;;;;;;11.43;10.30;;;;;;;24.80;55.97;100981.72;143724;616;47006;-72
2023/06/18 07:19:04;;;;;;;8.35;7.60;;;;;;;24.84;56.11;100985.56;143714;627;48010;-72
2023/06/18 07:21:31;;;;;;;10.15;9.20;;;;;;;24.88;55.69;100986.63;143726;608;47012;-73
2023/06/18 07:23:57;;;;;;;6.55;5.97;;;;;;;24.91;56.30;100977.78;143729;567;47022;-73
2023/06/18 07:26:23;;;;;;;8.05;7.22;;;;;;;24.91;56.19;100974.22;143730;573;47006;-77
2023/06/18 07:28:50;;;;;;;7.10;6.43;;;;;;;24.93;55.74;100969.25;143707;574;49010;-69
2023/06/18 07:31:16;;;;;;;6.75;6.05;;;;;;;25.01;55.77;100976.84;143727;592;47006;-70
2023/06/18 07:33:43;;;;;;;10.02;6.93;;;;;;;25.10;55.64;100966.88;143727;657;47008;-70
2023/06/18 07:36:09;;;;;;;5.87;5.37;;;;;;;25.19;55.52;100980.81;143726;606;47004;-71
2023/06/18 07:38:35;;;;;;;5.97;5.37;;;;;;;25.21;55.51;100970.34;143725;594;47011;-69
2023/06/18 07:41:01;;;;;;;6.95;6.35;;;;;;;25.30;55.79;100964.19;143728;635;47010;-70
2023/06/18 07:43:28;;;;;;;8.00;5.95;;;;;;;25.39;55.19;100971.50;143726;577;47008;-71
2023/06/18 07:45:54;;;;;;;10.13;9.13;;;;;;;25.47;55.27;100981.06;143729;574;47006;-71
2023/06/18 07:48:20;;;;;;;8.00;7.20;;;;;;;25.58;55.36;100971.59;143720;581;48006;-71
2023/06/18 07:50:46;;;;;;;7.05;6.35;;;;;;;25.68;54.45;100969.81;143729;639;47006;-71
2023/06/18 07:53:13;;;;;;;8.02;6.32;;;;;;;25.72;53.64;100970.88;143722;583;48008;-70
2023/06/18 07:55:40;;;;;;;7.47;6.72;;;;;;;25.69;53.68;100982.47;143731;692;47006;-70
2023/06/18 07:58:06;;;;;;;9.27;6.62;;;;;;;25.67;53.43;100979.19;143726;606;47010;-71
2023/06/18 08:00:32;;;;;;;8.48;7.68;;;;;;;25.67;53.27;100980.03;143727;582;47006;-71
2023/06/18 08:02:59;;;;;;;7.50;6.70;;;;;;;25.67;53.28;100984.69;143707;651;50016;-71
2023/06/18 08:05:25;;;;;;;7.05;6.32;;;;;;;25.69;53.56;100988.75;143732;572;47012;-71
2023/06/18 08:07:51;;;;;;;6.87;6.28;;;;;;;25.68;53.38;101002.81;143727;663;48923;-71
2023/06/18 08:10:17;;;;;;;6.43;5.82;;;;;;;25.68;53.35;101006.37;143728;582;47010;-71
2023/06/18 08:12:44;;;;;;;6.60;6.00;;;;;;;25.68;52.95;101013.84;143732;596;46008;-71
2023/06/18 08:15:11;;;;;;;8.00;5.68;;;;;;;25.67;52.95;101003.94;143730;655;47004;-71
2023/06/18 08:17:37;;;;;;;6.10;5.60;;;;;;;25.69;53.60;101019.03;143721;589;48010;-71
2023/06/18 08:20:04;;;;;;;6.50;5.90;;;;;;;25.77;53.20;101033.25;143725;573;49933;-73
2023/06/18 08:22:31;;;;;;;6.10;5.53;;;;;;;25.78;52.91;101030.19;143723;573;47008;-69
2023/06/18 08:24:57;;;;;;;5.78;5.10;;;;;;;25.80;52.79;101046.44;143723;584;48009;-71
2023/06/18 08:27:23;;;;;;;9.27;8.35;;;;;;;25.84;52.97;101053.78;143727;663;47012;-86
2023/06/18 08:29:49;;;;;;;8.02;7.32;;;;;;;25.88;52.58;101041.09;143726;577;47006;-77
2023/06/18 08:32:16;;;;;;;7.07;6.37;;;;;;;25.95;52.79;101048.97;143728;609;47009;-75
2023/06/18 08:34:42;;;;;;;11.05;9.60;;;;;;;25.98;52.13;101062.16;143725;567;48008;-74
2023/06/18 08:37:10;;;;;;;6.93;6.30;;;;;;;26.00;52.47;101059.09;143725;676;47010;-76
2023/06/18 08:39:37;;;;;;;6.00;5.30;;;;;;;25.97;52.58;101056.94;143727;666;47006;-76
2023/06/18 08:42:04;;;;;;;8.30;6.30;;;;;;;25.96;52.62;101063.56;143726;582;47012;-77
2023/06/18 08:44:33;;;;;;;6.60;6.00;;;;;;;25.96;52.19;101060.78;143729;692;48004;-77
2023/06/18 08:47:03;;;;;;;7.90;7.10;;;;;;;25.99;52.24;101071.22;143726;568;47011;-73
2023/06/18 08:49:31;;;;;;;6.30;5.70;;;;;;;25.99;52.35;101069.31;143725;674;48014;-80
2023/06/18 08:52:00;;;;;;;6.28;5.68;;;;;;;26.01;52.32;101078.09;143727;568;47008;-75
2023/06/18 08:54:37;;;;;;;6.68;6.07;;;;;;;26.00;52.27;101072.88;143723;589;47018;-75
2023/06/18 08:57:34;;;;;;;7.05;6.35;;;;;;;26.01;51.92;101083.59;143729;570;47010;-78
2023/06/18 09:00:03;;;;;;;7.00;6.32;;;;;;;25.99;51.96;101083.06;143727;721;48006;-77
2023/06/18 09:02:30;;;;;;;6.80;6.07;;;;;;;25.97;51.76;101082.53;143725;601;47922;-70
2023/06/18 09:04:57;;;;;;;7.50;5.28;;;;;;;25.97;51.69;101074.28;143725;672;50004;-70
2023/06/18 09:07:25;;;;;;;5.55;5.00;;;;;;;26.02;51.71;101087.16;143728;679;47010;-70
2023/06/18 09:09:51;;;;;;;5.55;5.00;;;;;;;26.01;51.67;101088.25;143726;661;47011;-70
2023/06/18 09:12:18;;;;;;;5.00;4.60;;;;;;;26.03;51.82;101086.03;143730;733;47008;-69
2023/06/18 09:14:45;;;;;;;5.30;4.78;;;;;;;26.07;52.02;101081.59;143740;730;47008;-70
2023/06/18 09:17:12;;;;;;;5.68;4.85;;;;;;;26.07;51.10;101086.25;143735;587;47012;-69
2023/06/18 09:19:39;;;;;;;5.50;5.00;;;;;;;26.07;51.22;101087.09;143734;590;48004;-69
2023/06/18 09:22:18;;;;;;;5.25;4.75;;;;;;;26.10;51.20;101085.69;143736;733;47008;-70
2023/06/18 09:24:45;;;;;;;5.57;5.07;;;;;;;26.07;50.79;101084.34;143737;573;47004;-69
2023/06/18 09:27:11;;;;;;;5.80;4.95;;;;;;;26.13;50.92;101088.69;143736;575;47019;-70
2023/06/18 09:29:41;;;;;;;5.60;5.10;;;;;;;26.15;51.04;101086.44;143726;655;47007;-71
2023/06/18 09:32:12;;;;;;;5.53;5.05;;;;;;;26.20;51.30;101093.00;143736;656;47008;-71
2023/06/18 09:34:39;;;;;;;4.95;4.55;;;;;;;26.25;50.97;101093.75;143738;596;47008;-70
2023/06/18 09:37:07;;;;;;;5.70;5.00;;;;;;;26.26;50.66;101095.41;143735;651;47010;-70
2023/06/18 09:39:35;;;;;;;5.95;5.35;;;;;;;26.33;50.76;101097.78;143732;646;47007;-70
2023/06/18 09:42:11;;;;;;;5.68;5.18;;;;;;;26.32;50.49;101090.63;143735;572;47008;-70
2023/06/18 09:44:37;;;;;;;5.70;5.20;;;;;;;26.34;50.61;101082.91;143738;568;47004;-70
2023/06/18 09:47:11;;;;;;;5.97;5.00;;;;;;;26.40;49.57;101084.47;143733;593;47007;-70
2023/06/18 09:49:38;;;;;;;6.40;5.78;;;;;;;26.44;49.93;101085.53;143735;711;47006;-70
2023/06/18 09:52:07;;;;;;;9.23;7.12;;;;;;;26.51;49.21;101076.88;143734;699;47008;-71
2023/06/18 09:54:41;;;;;;;6.97;6.25;;;;;;;26.58;49.77;101080.06;143737;578;48004;-71
2023/06/18 09:57:10;;;;;;;7.60;5.55;;;;;;;26.65;49.53;101085.22;143737;735;47006;-71
2023/06/18 09:59:37;;;;;;;7.00;5.45;;;;;;;26.73;49.51;101086.50;143721;568;50007;-71
2023/06/18 10:02:05;;;;;;;7.72;6.93;;;;;;;26.80;49.35;101081.44;143735;573;47008;-71
2023/06/18 10:04:34;;;;;;;10.23;8.90;;;;;;;26.85;49.32;101086.88;143736;588;47004;-71
2023/06/18 10:07:04;;;;;;;9.55;7.47;;;;;;;26.90;48.51;101084.03;143735;697;47012;-72
2023/06/18 10:09:36;;;;;;;7.40;5.45;;;;;;;26.94;48.29;101081.50;143732;658;48006;-70
2023/06/18 10:12:05;;;;;;;6.32;5.72;;;;;;;26.92;48.39;101084.53;143734;706;47008;-69
2023/06/18 10:14:32;;;;;;;5.78;5.28;;;;;;;26.96;48.35;101090.28;143731;714;46012;-70
2023/06/18 10:17:09;;;;;;;4.78;4.37;;;;;;;26.94;48.39;101076.78;143729;603;47011;-70
2023/06/18 10:20:08;;;;;;;5.80;5.30;;;;;;;26.99;47.96;101081.41;143727;617;47006;-71
2023/06/18 10:22:41;;;;;;;4.95;4.55;;;;;;;27.04;47.75;101083.25;143728;618;47008;-71
2023/06/18 10:25:07;;;;;;;5.90;5.37;;;;;;;27.08;48.06;101076.84;143731;674;47006;-71
2023/06/18 10:27:36;;;;;;;6.00;5.50;;;;;;;27.09;47.13;101085.94;143728;609;47012;-69
2023/06/18 10:30:05;;;;;;;6.50;5.72;;;;;;;27.12;46.68;101081.75;143725;619;48004;-70
2023/06/18 10:32:33;;;;;;;6.28;5.43;;;;;;;27.16;46.84;101080.03;143731;667;46009;-71
2023/06/18 10:35:02;;;;;;;5.05;4.57;;;;;;;27.24;47.00;101082.06;143728;671;47008;-70
2023/06/18 10:37:34;;;;;;;7.57;5.75;;;;;;;27.30;47.95;101075.34;143730;644;47011;-71
2023/06/18 10:40:01;;;;;;;14.52;12.68;;;;;;;27.33;45.33;101071.16;143728;599;47006;-71
2023/06/18 10:42:31;;;;;;;17.77;12.60;;;;;;;27.33;45.31;101068.41;143723;639;46008;-72
2023/06/18 10:45:02;;;;;;;12.90;11.12;;;;;;;27.35;44.88;101068.91;143725;730;47006;-71
2023/06/18 10:47:29;;;;;;;9.85;8.85;;;;;;;27.36;44.83;101076.88;143722;625;47010;-71
2023/06/18 10:50:25;;;;;;;6.62;6.03;;;;;;;27.36;44.00;101082.41;143721;566;49010;-71
2023/06/18 10:52:51;;;;;;;6.65;6.03;;;;;;;27.34;43.82;101081.06;143729;602;46009;-72
2023/06/18 10:55:43;;;;;;;6.07;5.53;;;;;;;27.32;43.63;101081.37;143727;572;48006;-72
2023/06/18 10:58:09;;;;;;;8.02;6.25;;;;;;;27.32;44.19;101077.78;143726;594;48010;-73
2023/06/18 11:00:44;;;;;;;6.43;5.72;;;;;;;27.34;43.72;101075.56;143727;675;47010;-72
2023/06/18 11:03:17;;;;;;;5.85;5.32;;;;;;;27.33;44.18;101083.03;143726;638;47009;-72
2023/06/18 11:05:46;;;;;;;6.30;5.70;;;;;;;27.33;44.13;101074.75;143731;745;47004;-72
2023/06/18 11:08:14;;;;;;;6.43;5.82;;;;;;;27.34;44.09;101070.87;143727;655;47011;-71
2023/06/18 11:10:45;;;;;;;6.50;5.80;;;;;;;27.30;43.94;101077.28;143725;704;48004;-72
2023/06/18 11:13:11;;;;;;;6.05;5.53;;;;;;;27.28;44.52;101074.84;143727;586;47008;-71
2023/06/18 11:16:00;;;;;;;5.90;5.40;;;;;;;27.29;44.68;101070.13;143729;664;47006;-71
2023/06/18 11:18:29;;;;;;;5.78;5.25;;;;;;;27.23;44.52;101072.16;143729;690;47006;-72
2023/06/18 11:20:56;;;;;;;5.97;5.03;;;;;;;27.24;44.89;101069.12;143726;594;47006;-72
2023/06/18 11:23:23;;;;;;;5.87;5.35;;;;;;;27.26;45.01;101070.75;143722;579;47009;-72
2023/06/18 11:25:50;;;;;;;6.62;5.90;;;;;;;27.25;44.86;101064.41;143730;684;47008;-72
2023/06/18 11:28:17;;;;;;;6.20;5.60;;;;;;;27.27;44.77;101069.62;143727;578;47010;-72
2023/06/18 11:30:51;;;;;;;6.28;5.75;;;;;;;27.28;44.00;101068.50;143729;588;46011;-72
2023/06/18 11:33:25;;;;;;;8.05;6.07;;;;;;;27.29;44.84;101075.62;143720;568;47008;-71
2023/06/18 11:35:52;;;;;;;5.93;5.43;;;;;;;27.29;44.73;101062.69;143731;594;47008;-71
2023/06/18 11:38:19;;;;;;;5.78;5.28;;;;;;;27.31;44.81;101065.97;143728;604;47007;-72
2023/06/18 11:40:53;;;;;;;5.82;5.25;;;;;;;27.35;44.73;101060.66;143728;599;47010;-72
2023/06/18 11:43:19;;;;;;;;;;;;;;;27.35;44.98;101061.47;143731;985;47008;-72
2023/06/18 11:45:47;;;;;;;6.37;5.37;;;;;;;27.35;44.28;101055.97;143735;572;48002;-72
2023/06/18 11:48:16;;;;;;;6.78;5.43;;;;;;;27.30;43.70;101056.06;143727;609;47010;-72
2023/06/18 11:50:42;;;;;;;5.40;4.90;;;;;;;27.32;44.29;101059.31;143727;582;47006;-71
2023/06/18 11:53:10;;;;;;;6.03;5.53;;;;;;;27.34;44.55;101056.25;143719;582;48002;-72
2023/06/18 11:55:37;;;;;;;7.78;5.20;;;;;;;27.39;44.65;101048.69;143726;660;50007;-73
2023/06/18 11:58:05;;;;;;;5.47;4.97;;;;;;;27.48;44.99;101042.50;143722;586;47012;-72